createdAt,value
2019-06-10T06:41:25.622Z,9.43
2019-06-10T06:43:54.184Z,6.20
2019-06-10T06:46:23.353Z,8.68
2019-06-10T06:48:53.210Z,6.50
2019-06-10T06:51:36.402Z,7.80
2019-06-10T06:53:56.273Z,10.82
2019-06-10T06:56:34.544Z,8.23
2019-06-10T06:59:02.388Z,8.38
2019-06-10T07:01:34.674Z,8.63
2019-06-10T07:04:02.592Z,8.78
2019-06-10T07:06:34.079Z,7.28
2019-06-10T07:09:07.416Z,8.78
2019-06-10T07:11:45.236Z,6.95
2019-06-10T07:14:13.347Z,8.93
2019-06-10T07:16:45.920Z,6.00
2019-06-10T07:19:13.196Z,4.97
2019-06-10T07:22:02.282Z,7.10
2019-06-10T07:24:13.456Z,4.53
2019-06-10T07:26:50.201Z,4.95
2019-06-10T07:29:13.174Z,4.58
2019-06-10T07:31:45.994Z,5.22
2019-06-10T07:34:12.911Z,5.45
2019-06-10T07:36:44.127Z,3.55
2019-06-10T07:39:13.417Z,5.20
2019-06-10T07:41:47.501Z,4.15
2019-06-10T07:44:12.601Z,5.20
2019-06-10T07:46:43.793Z,5.92
2019-06-10T07:49:13.570Z,4.62
2019-06-10T07:51:45.580Z,4.50
2019-06-10T07:54:12.530Z,3.95
2019-06-10T07:56:47.543Z,3.45
2019-06-10T07:59:12.915Z,5.78
2019-06-10T08:02:06.026Z,7.67
2019-06-10T08:04:35.222Z,4.62
2019-06-10T08:07:05.004Z,6.80
2019-06-10T08:09:46.225Z,6.17
2019-06-10T08:12:16.077Z,5.25
2019-06-10T08:14:45.730Z,7.08
2019-06-10T08:17:14.619Z,3.60
2019-06-10T08:19:49.022Z,4.95
2019-06-10T08:22:31.292Z,5.72
2019-06-10T08:24:52.244Z,5.45
2019-06-10T08:27:22.554Z,6.58
2019-06-10T08:30:07.791Z,4.00
2019-06-10T08:32:21.257Z,5.12
2019-06-10T08:34:49.781Z,6.45
2019-06-10T08:37:27.647Z,6.37
2019-06-10T08:39:56.158Z,7.53
2019-06-10T08:42:32.439Z,7.00
2019-06-10T08:45:03.454Z,5.83
2019-06-10T08:47:32.606Z,5.25
2019-06-10T08:50:02.601Z,13.62
2019-06-10T08:52:49.378Z,5.65
2019-06-10T08:55:03.295Z,6.92
2019-06-10T08:57:33.534Z,4.47
2019-06-10T09:00:07.051Z,4.12
2019-06-10T09:02:33.413Z,5.10
2019-06-10T09:05:03.688Z,7.75
2019-06-10T09:07:32.459Z,7.45
2019-06-10T09:10:02.993Z,6.08
2019-06-10T09:12:36.415Z,7.53
2019-06-10T09:15:03.749Z,7.85
2019-06-10T09:17:33.786Z,4.42
2019-06-10T09:20:13.007Z,5.40
2019-06-10T09:23:15.138Z,6.92
2019-06-10T09:25:33.163Z,8.70
2019-06-10T09:28:02.372Z,5.50
2019-06-10T09:30:33.208Z,7.58
2019-06-10T09:33:04.051Z,7.95
2019-06-10T09:35:32.308Z,9.10
2019-06-10T09:38:03.526Z,4.85
2019-06-10T09:40:59.937Z,6.20
2019-06-10T09:43:23.514Z,6.60
2019-06-10T09:45:56.369Z,6.03
2019-06-10T09:48:24.445Z,6.72
2019-06-10T09:50:57.885Z,5.58
2019-06-10T09:53:32.790Z,7.90
2019-06-10T09:55:55.522Z,6.00
2019-06-10T09:58:33.492Z,4.78
2019-06-10T10:01:03.254Z,6.33
2019-06-10T10:03:32.969Z,4.55
2019-06-10T10:06:13.684Z,7.45
2019-06-10T10:08:33.831Z,6.33
2019-06-10T10:11:02.372Z,7.95
2019-06-10T10:13:34.983Z,6.08
2019-06-10T10:16:02.604Z,5.10
2019-06-10T10:18:33.498Z,5.92
2019-06-10T10:21:03.924Z,8.03
2019-06-10T10:23:49.135Z,6.22
2019-06-10T10:26:03.437Z,8.70
2019-06-10T10:28:33.402Z,8.50
2019-06-10T10:31:04.380Z,6.08
2019-06-10T10:33:44.584Z,6.95
2019-06-10T10:36:14.186Z,7.83
2019-06-10T10:38:42.830Z,7.92
2019-06-10T10:41:17.749Z,6.70
2019-06-10T10:43:48.652Z,7.97
2019-06-10T10:46:16.566Z,7.15
2019-06-10T10:48:45.239Z,6.95
2019-06-10T10:51:27.135Z,10.28
2019-06-10T10:54:20.163Z,8.13
2019-06-10T10:56:26.036Z,9.05
2019-06-10T10:58:57.674Z,7.42
2019-06-10T11:01:24.838Z,5.67
2019-06-10T11:03:58.790Z,8.30
2019-06-10T11:06:23.552Z,8.80
2019-06-10T11:08:57.099Z,7.22
2019-06-10T11:11:24.155Z,4.62
2019-06-10T11:13:56.723Z,9.05
2019-06-10T11:16:23.529Z,6.97
2019-06-10T11:18:54.062Z,9.20
2019-06-10T11:21:42.639Z,6.05
2019-06-10T11:24:14.171Z,6.60
2019-06-10T11:26:42.983Z,5.40
2019-06-10T11:29:11.248Z,7.45
2019-06-10T11:31:42.006Z,6.30
2019-06-10T11:34:09.913Z,8.30
2019-06-10T11:36:38.653Z,8.15
2019-06-10T11:39:08.245Z,9.15
2019-06-10T11:41:36.905Z,8.60
2019-06-10T11:44:05.531Z,9.25
2019-06-10T11:46:34.061Z,7.33
2019-06-10T11:49:03.866Z,10.78
2019-06-10T11:51:32.882Z,9.55
2019-06-10T11:54:03.475Z,7.00
2019-06-10T11:56:33.653Z,9.50
2019-06-10T11:59:08.963Z,8.20
2019-06-10T12:01:32.206Z,12.35
2019-06-10T12:04:04.023Z,7.70
2019-06-10T12:06:33.370Z,7.53
2019-06-10T12:09:02.992Z,9.18
2019-06-10T12:11:31.887Z,9.40
2019-06-10T12:14:04.351Z,7.40
2019-06-10T12:17:15.543Z,11.57
2019-06-10T12:19:03.601Z,9.50
2019-06-10T12:21:38.736Z,10.38
2019-06-10T12:24:07.245Z,9.78
2019-06-10T12:26:35.845Z,8.53
2019-06-10T12:29:05.746Z,10.72
2019-06-10T12:31:38.637Z,9.30
2019-06-10T12:34:07.139Z,8.40
2019-06-10T12:36:42.106Z,12.00
2019-06-10T12:39:14.887Z,13.55
2019-06-10T12:41:42.960Z,7.62
2019-06-10T12:44:17.418Z,7.53
2019-06-10T12:46:45.884Z,11.43
2019-06-10T12:49:18.455Z,11.55
2019-06-10T12:51:49.250Z,11.65
2019-06-10T12:54:17.924Z,9.70
2019-06-10T12:56:46.505Z,7.97
2019-06-10T12:59:15.210Z,21.52
2019-06-10T13:01:44.763Z,19.02
2019-06-10T13:04:14.019Z,17.50
2019-06-10T13:06:46.152Z,18.90
2019-06-10T13:09:14.620Z,15.35
2019-06-10T13:11:49.782Z,12.35
2019-06-10T13:14:18.555Z,14.70
2019-06-10T13:16:47.075Z,16.77
2019-06-10T13:19:15.691Z,14.68
2019-06-10T13:21:44.260Z,16.27
2019-06-10T13:24:13.841Z,11.48
2019-06-10T13:26:43.303Z,15.08
2019-06-10T13:29:17.292Z,18.82
2019-06-10T13:31:43.633Z,14.38
2019-06-10T13:34:14.711Z,14.30
2019-06-10T13:36:42.532Z,14.65
2019-06-10T13:39:13.349Z,12.35
2019-06-10T13:41:44.343Z,13.93
2019-06-10T13:44:16.608Z,14.07
2019-06-10T13:46:43.475Z,14.90
2019-06-10T13:49:15.499Z,11.55
2019-06-10T13:51:45.683Z,11.95
2019-06-10T13:54:14.269Z,11.15
2019-06-10T13:56:47.462Z,12.45
2019-06-10T14:01:49.538Z,9.78
2019-06-10T14:04:21.749Z,11.80
2019-06-10T14:06:50.509Z,11.45
2019-06-10T14:09:18.572Z,12.55
2019-06-10T14:11:47.026Z,11.65
2019-06-10T14:14:18.536Z,13.83
2019-06-10T14:16:47.105Z,15.58
2019-06-10T14:19:16.249Z,10.85
2019-06-10T14:21:57.478Z,9.03
2019-06-10T14:24:25.936Z,12.15
2019-06-10T14:26:54.493Z,10.38
2019-06-10T14:29:23.130Z,11.60
2019-06-10T14:31:55.077Z,14.98
2019-06-10T14:34:23.683Z,12.15
2019-06-10T14:36:52.666Z,8.18
2019-06-10T14:39:22.123Z,10.88
2019-06-10T14:41:52.257Z,12.80
2019-06-10T14:44:23.253Z,13.50
2019-06-10T14:46:53.030Z,11.85
2019-06-10T14:49:22.292Z,14.58
2019-06-10T14:51:54.631Z,10.03
2019-06-10T14:54:23.243Z,11.78
2019-06-10T14:56:56.959Z,12.03
2019-06-10T14:59:22.661Z,12.63
2019-06-10T15:02:02.783Z,11.93
2019-06-10T15:04:33.012Z,13.80
2019-06-10T15:07:02.871Z,12.37
2019-06-10T15:09:33.353Z,10.70
2019-06-10T15:12:02.805Z,12.07
2019-06-10T15:14:32.396Z,15.55
2019-06-10T15:17:04.157Z,12.63
2019-06-10T15:19:33.348Z,16.10
2019-06-10T15:22:20.328Z,13.22
2019-06-10T15:24:48.950Z,12.30
2019-06-10T15:27:24.770Z,13.78
2019-06-10T15:29:47.670Z,11.83
2019-06-10T15:32:27.712Z,16.02
2019-06-10T15:34:46.533Z,9.08
2019-06-10T15:37:17.120Z,11.38
2019-06-10T15:39:45.229Z,10.45
2019-06-10T15:42:22.662Z,13.13
2019-06-10T15:44:53.449Z,10.93
2019-06-10T15:47:26.440Z,13.05
2019-06-10T15:49:52.511Z,14.30
2019-06-10T15:52:25.063Z,13.03
2019-06-10T15:54:52.929Z,14.40
2019-06-10T15:57:36.690Z,11.95
2019-06-10T16:00:04.203Z,11.00
2019-06-10T16:02:37.412Z,11.03
2019-06-10T16:05:07.245Z,12.25
2019-06-10T16:07:35.704Z,11.88
2019-06-10T16:10:06.827Z,11.25
2019-06-10T16:12:36.899Z,12.55
2019-06-10T16:15:06.720Z,10.78
2019-06-10T16:17:35.179Z,12.95
2019-06-10T16:20:07.340Z,14.68
2019-06-10T16:22:52.386Z,10.88
2019-06-10T16:25:23.602Z,13.28
2019-06-10T16:27:54.278Z,11.68
2019-06-10T16:30:23.194Z,12.40
2019-06-10T16:32:52.999Z,13.95
2019-06-10T16:35:23.912Z,15.63
2019-06-10T16:38:01.346Z,15.20
2019-06-10T16:40:32.380Z,14.43
2019-06-10T16:43:01.089Z,15.83
2019-06-10T16:45:31.704Z,14.55
2019-06-10T16:48:02.370Z,15.50
2019-06-10T16:50:34.088Z,16.70
2019-06-10T16:53:04.802Z,15.43
2019-06-10T16:55:33.467Z,13.00
2019-06-10T16:58:02.736Z,13.58
2019-06-10T17:00:34.479Z,16.62
2019-06-10T17:03:05.747Z,18.23
2019-06-10T17:05:34.221Z,13.90
2019-06-10T17:08:04.174Z,17.17
2019-06-10T17:10:35.933Z,18.17
2019-06-10T17:13:06.272Z,18.75
2019-06-10T17:15:34.782Z,17.05
2019-06-10T17:18:03.326Z,18.98
2019-06-10T17:20:38.334Z,18.12
2019-06-10T17:23:27.048Z,18.92
2019-06-10T17:25:56.483Z,16.62
2019-06-10T17:28:30.284Z,17.07
2019-06-10T17:30:57.397Z,15.72
2019-06-10T17:33:27.884Z,24.98
2019-06-10T17:35:56.846Z,22.48
2019-06-10T17:38:26.731Z,19.30
2019-06-10T17:40:57.852Z,19.45
2019-06-10T17:43:27.303Z,20.70
2019-06-10T17:45:55.881Z,21.97
2019-06-10T17:48:25.983Z,23.50
2019-06-10T17:50:54.566Z,24.82
2019-06-10T17:53:24.266Z,22.65
2019-06-10T17:55:52.906Z,26.48
2019-06-10T17:58:33.351Z,22.32
2019-06-10T18:00:53.065Z,26.57
2019-06-10T18:03:23.175Z,24.27
2019-06-10T18:05:53.285Z,27.75
2019-06-10T18:08:22.897Z,25.45
2019-06-10T18:10:57.623Z,25.20
2019-06-10T18:13:26.389Z,23.57
2019-06-10T18:15:54.876Z,23.02
2019-06-10T18:18:24.216Z,24.45
2019-06-10T18:20:53.864Z,24.47
2019-06-10T18:23:23.376Z,23.62
2019-06-10T18:25:52.944Z,24.43
2019-06-10T18:28:22.644Z,22.65
2019-06-10T18:30:53.219Z,25.00
2019-06-10T18:33:23.015Z,25.90
2019-06-10T18:35:53.232Z,22.80
2019-06-10T18:38:22.328Z,22.22
2019-06-10T18:40:53.303Z,22.15
2019-06-10T18:43:23.016Z,25.10
2019-06-10T18:45:53.222Z,28.92
2019-06-10T18:48:23.146Z,21.52
2019-06-10T18:50:53.398Z,32.08
2019-06-10T18:53:23.657Z,21.82
2019-06-10T18:55:54.729Z,27.10
2019-06-10T18:58:22.794Z,28.12
2019-06-10T19:01:03.942Z,25.75
2019-06-10T19:03:28.430Z,20.62
2019-06-10T19:05:57.045Z,23.80
2019-06-10T19:08:25.509Z,21.87
2019-06-10T19:10:58.661Z,25.75
2019-06-10T19:13:27.199Z,23.95
2019-06-10T19:15:55.734Z,26.02
2019-06-10T19:18:24.328Z,24.40
2019-06-10T19:20:53.345Z,24.90
2019-06-10T19:23:22.925Z,27.87
2019-06-10T19:25:52.435Z,32.40
2019-06-10T19:28:22.830Z,29.52
2019-06-10T19:30:53.557Z,29.95
2019-06-10T19:33:23.583Z,26.65
2019-06-10T19:35:53.035Z,25.75
2019-06-10T19:38:23.035Z,29.15
2019-06-10T19:40:52.480Z,23.22
2019-06-10T19:43:21.051Z,29.37
2019-06-10T19:45:49.692Z,29.20
2019-06-10T19:48:18.276Z,32.33
2019-06-10T19:50:50.209Z,29.70
2019-06-10T19:53:17.827Z,35.65
2019-06-10T19:55:46.624Z,33.55
2019-06-10T19:58:15.175Z,36.15
2019-06-10T20:00:50.852Z,31.60
2019-06-10T20:03:13.944Z,28.40
2019-06-10T20:05:44.813Z,35.88
2019-06-10T20:08:12.714Z,35.35
2019-06-10T20:10:42.331Z,33.45
2019-06-10T20:13:11.303Z,34.08
2019-06-10T20:15:39.855Z,30.48
2019-06-10T20:18:08.976Z,38.05
2019-06-10T20:20:38.208Z,33.35
2019-06-10T20:23:08.805Z,35.35
2019-06-10T20:25:41.045Z,40.45
2019-06-10T20:28:09.966Z,30.72
2019-06-10T20:30:38.807Z,32.90
2019-06-10T20:33:18.345Z,34.08
2019-06-10T20:35:46.879Z,31.17
2019-06-10T20:38:15.346Z,34.10
2019-06-10T20:40:45.658Z,33.67
2019-06-10T20:43:14.236Z,35.20
2019-06-10T20:45:46.218Z,35.50
2019-06-10T20:48:13.099Z,35.78
2019-06-10T20:50:44.054Z,37.65
2019-06-10T20:53:18.114Z,39.98
2019-06-10T20:55:50.652Z,39.63
2019-06-10T20:58:12.498Z,43.78
2019-06-10T21:00:48.072Z,40.67
2019-06-10T21:03:11.544Z,38.48
2019-06-10T21:05:43.694Z,38.88
2019-06-10T21:08:12.377Z,41.77
2019-06-10T21:10:44.683Z,43.98
2019-06-10T21:13:12.480Z,43.00
2019-06-10T21:15:46.726Z,43.40
2019-06-10T21:18:13.194Z,58.58
2019-06-10T21:20:46.644Z,47.10
2019-06-10T21:23:15.487Z,48.28
2019-06-10T21:25:45.834Z,52.38
2019-06-10T21:28:13.090Z,57.90
2019-06-10T21:30:48.452Z,56.83
2019-06-10T21:33:13.001Z,55.73
2019-06-10T21:35:44.079Z,60.28
2019-06-10T21:38:12.771Z,61.20
2019-06-10T21:40:42.496Z,60.30
2019-06-10T21:43:14.677Z,64.22
2019-06-10T21:45:49.110Z,58.95
2019-06-10T21:48:13.339Z,63.60
2019-06-10T21:50:54.283Z,60.52
2019-06-10T21:53:22.308Z,57.30
2019-06-10T21:55:53.456Z,57.33
2019-06-10T21:58:22.577Z,55.75
2019-06-10T22:01:09.649Z,47.50
2019-06-10T22:03:32.115Z,49.23
2019-06-10T22:05:59.764Z,56.13
2019-06-10T22:08:28.437Z,48.13
2019-06-10T22:10:58.964Z,46.55
2019-06-10T22:13:27.421Z,45.63
2019-06-10T22:15:57.135Z,48.50
2019-06-10T22:18:26.817Z,40.00
2019-06-10T22:20:57.513Z,40.45
2019-06-10T22:23:25.693Z,42.78
2019-06-10T22:26:02.597Z,44.85
2019-06-10T22:28:32.675Z,46.10
2019-06-10T22:31:15.955Z,42.10
2019-06-10T22:33:32.042Z,46.75
2019-06-10T22:36:02.395Z,48.87
2019-06-10T22:38:32.801Z,45.08
2019-06-10T22:41:03.279Z,42.90
2019-06-10T22:43:32.186Z,46.00
2019-06-10T22:46:00.782Z,46.33
2019-06-10T22:48:33.312Z,53.17
2019-06-10T22:51:02.324Z,51.92
2019-06-10T22:53:33.152Z,57.67
2019-06-10T22:56:02.987Z,56.88
2019-06-10T22:58:31.415Z,61.80
2019-06-10T23:01:04.039Z,62.60
2019-06-10T23:03:31.932Z,60.58
2019-06-10T23:06:02.668Z,60.63
2019-06-10T23:08:33.252Z,59.63
2019-06-10T23:11:02.814Z,65.70
2019-06-10T23:13:31.921Z,62.08
2019-06-10T23:16:02.437Z,72.82
2019-06-10T23:18:32.061Z,64.95
2019-06-10T23:21:01.586Z,62.65
2019-06-10T23:23:32.587Z,59.90
2019-06-10T23:26:02.913Z,63.78
2019-06-10T23:28:32.722Z,60.58
2019-06-10T23:31:02.467Z,59.20
2019-06-10T23:33:32.433Z,59.38
2019-06-10T23:36:03.740Z,56.55
2019-06-10T23:38:32.870Z,60.65
2019-06-10T23:41:03.555Z,65.92
2019-06-10T23:43:32.998Z,61.02
2019-06-10T23:46:04.734Z,67.50
2019-06-10T23:51:04.720Z,68.72
2019-06-10T23:53:34.109Z,72.10
2019-06-10T23:56:04.725Z,75.73
2019-06-10T23:58:33.058Z,83.45
